Observation data for Morton on 06/20/2019      Previous  Date  Next       Current Mesonet Observations  Soil Data  Daily Summary Page  Observations in Plain Language
KMNS 200500Z 12009KT 23/12 A2988 RMK A01 T02290122  RH  053%=      5-min Rain = 0
KMNS 200505Z 11010KT 23/12 A2988 RMK A01 T02290123  RH  053%=      5-min Rain = 0
KMNS 200510Z 11010KT 23/13 A2988 RMK A01 T02290126  RH  054%=      5-min Rain = 0
KMNS 200515Z 12010KT 23/13 A2987 RMK A01 T02320131  RH  055%=      5-min Rain = 0
KMNS 200520Z 13011G16KT 23/13 A2987 RMK A01 T02340133  RH  055%=      5-min Rain = 0
KMNS 200525Z 12010KT 23/13 A2987 RMK A01 T02320133  RH  056%=      5-min Rain = 0
KMNS 200530Z 12008KT 23/13 A2987 RMK A01 T02280134  RH  058%=      5-min Rain = 0
KMNS 200535Z 13007KT 22/14 A2987 RMK A01 T02220137  RH  061%=      5-min Rain = 0
KMNS 200540Z 13008KT 22/14 A2987 RMK A01 T02210137  RH  061%=      5-min Rain = 0
KMNS 200545Z 13007KT 22/14 A2988 RMK A01 T02180138  RH  063%=      5-min Rain = 0
KMNS 200550Z 13007KT 22/14 A2988 RMK A01 T02160138  RH  064%=      5-min Rain = 0
KMNS 200555Z 12006KT 21/14 A2988 RMK A01 T02080139  RH  067%=      5-min Rain = 0
KMNS 200600Z 13006KT 21/14 A2988 RMK A01 T02060140  RH  069%=      5-min Rain = 0
KMNS 200605Z 14007KT 21/14 A2988 RMK A01 T02120138  RH  065%=      5-min Rain = 0
KMNS 200610Z 15008KT 22/14 A2988 RMK A01 T02190139  RH  063%=      5-min Rain = 0
KMNS 200615Z 15009KT 22/14 A2988 RMK A01 T02220140  RH  062%=      5-min Rain = 0
KMNS 200620Z 16009KT 22/14 A2988 RMK A01 T02240139  RH  061%=      5-min Rain = 0
KMNS 200625Z 16009KT 22/14 A2988 RMK A01 T02240140  RH  061%=      5-min Rain = 0
KMNS 200630Z 16009KT 23/14 A2988 RMK A01 T02250140  RH  061%=      5-min Rain = 0
KMNS 200635Z 16008KT 22/14 A2988 RMK A01 T02240141  RH  062%=      5-min Rain = 0
KMNS 200640Z 16009KT 22/14 A2987 RMK A01 T02240142  RH  062%=      5-min Rain = 0
KMNS 200645Z 16008KT 23/14 A2987 RMK A01 T02250143  RH  063%=      5-min Rain = 0
KMNS 200650Z 15009KT 23/15 A2987 RMK A01 T02250145  RH  063%=      5-min Rain = 0
KMNS 200655Z 15009KT 23/15 A2987 RMK A01 T02260145  RH  063%=      5-min Rain = 0
KMNS 200700Z 15010KT 23/15 A2987 RMK A01 T02250146  RH  064%=      5-min Rain = 0
KMNS 200705Z 15009KT 22/15 A2987 RMK A01 T02240146  RH  064%=      5-min Rain = 0
KMNS 200710Z 15010KT 22/15 A2987 RMK A01 T02240146  RH  064%=      5-min Rain = 0
KMNS 200715Z 15010KT 22/15 A2987 RMK A01 T02240146  RH  064%=      5-min Rain = 0
KMNS 200720Z 15010KT 22/15 A2987 RMK A01 T02240147  RH  064%=      5-min Rain = 0
KMNS 200725Z 13009KT 22/15 A2987 RMK A01 T02220148  RH  066%=      5-min Rain = 0
KMNS 200730Z 13008KT 22/15 A2987 RMK A01 T02180149  RH  068%=      5-min Rain = 0
KMNS 200735Z 13007KT 22/15 A2987 RMK A01 T02150150  RH  069%=      5-min Rain = 0
KMNS 200740Z 12005KT 21/15 A2987 RMK A01 T02070150  RH  073%=      5-min Rain = 0
KMNS 200745Z 12006KT 20/15 A2987 RMK A01 T02000151  RH  077%=      5-min Rain = 0
KMNS 200750Z 13006KT 20/15 A2986 RMK A01 T01990152  RH  077%=      5-min Rain = 0
KMNS 200755Z 15005KT 20/15 A2986 RMK A01 T02020152  RH  076%=      5-min Rain = 0
KMNS 200800Z 15005KT 20/15 A2986 RMK A01 T02040153  RH  076%=      5-min Rain = 0
KMNS 200805Z 15004KT 20/15 A2986 RMK A01 T02040152  RH  075%=      5-min Rain = 0
KMNS 200810Z 16005KT 20/15 A2986 RMK A01 T02030152  RH  076%=      5-min Rain = 0
KMNS 200815Z 16006KT 20/15 A2986 RMK A01 T02040153  RH  076%=      5-min Rain = 0
KMNS 200820Z 16006KT 21/15 A2986 RMK A01 T02050153  RH  076%=      5-min Rain = 0
KMNS 200825Z 16006KT 20/15 A2986 RMK A01 T02040153  RH  076%=      5-min Rain = 0
KMNS 200830Z 15007KT 20/15 A2986 RMK A01 T02030153  RH  077%=      5-min Rain = 0
KMNS 200835Z 16007KT 20/15 A2985 RMK A01 T02020153  RH  077%=      5-min Rain = 0
KMNS 200840Z 16007KT 20/15 A2985 RMK A01 T02010153  RH  077%=      5-min Rain = 0
KMNS 200845Z 16006KT 20/15 A2985 RMK A01 T02000153  RH  078%=      5-min Rain = 0
KMNS 200850Z 15006KT 20/15 A2985 RMK A01 T01990153  RH  078%=      5-min Rain = 0
KMNS 200855Z 16006KT 20/15 A2985 RMK A01 T01990153  RH  078%=      5-min Rain = 0
KMNS 200900Z 15006KT 20/15 A2985 RMK A01 T01970153  RH  079%=      5-min Rain = 0
KMNS 200905Z 16007KT 20/15 A2985 RMK A01 T01950153  RH  080%=      5-min Rain = 0
KMNS 200910Z 16006KT 19/15 A2985 RMK A01 T01940153  RH  081%=      5-min Rain = 0
KMNS 200915Z 17005KT 19/15 A2984 RMK A01 T01920153  RH  082%=      5-min Rain = 0
KMNS 200920Z 18006KT 19/15 A2984 RMK A01 T01900152  RH  083%=      5-min Rain = 0
KMNS 200925Z 18006KT 19/15 A2985 RMK A01 T01870152  RH  084%=      5-min Rain = 0
KMNS 200930Z 18006KT 19/15 A2985 RMK A01 T01850151  RH  085%=      5-min Rain = 0
KMNS 200935Z 16006KT 19/15 A2984 RMK A01 T01850153  RH  085%=      5-min Rain = 0
KMNS 200940Z 19006KT 19/15 A2984 RMK A01 T01870153  RH  084%=      5-min Rain = 0
KMNS 200945Z 20006KT 18/15 A2984 RMK A01 T01830151  RH  085%=      5-min Rain = 0
KMNS 200950Z 19006KT 18/15 A2984 RMK A01 T01810151  RH  087%=      5-min Rain = 0
KMNS 200955Z 20005KT 18/15 A2985 RMK A01 T01790150  RH  087%=      5-min Rain = 0
KMNS 201000Z 20004KT 18/15 A2985 RMK A01 T01790151  RH  088%=      5-min Rain = 0
KMNS 201005Z 20004KT 18/15 A2984 RMK A01 T01790151  RH  088%=      5-min Rain = 0
KMNS 201010Z 20005KT 18/15 A2984 RMK A01 T01800151  RH  087%=      5-min Rain = 0
KMNS 201015Z 20005KT 18/15 A2984 RMK A01 T01790150  RH  087%=      5-min Rain = 0
KMNS 201020Z 21004KT 18/15 A2984 RMK A01 T01780149  RH  087%=      5-min Rain = 0
KMNS 201025Z 22004KT 18/15 A2984 RMK A01 T01780149  RH  087%=      5-min Rain = 0
KMNS 201030Z 23003KT 18/15 A2984 RMK A01 T01780149  RH  087%=      5-min Rain = 0
KMNS 201035Z 25001KT 18/15 A2984 RMK A01 T01750146  RH  087%=      5-min Rain = 0
KMNS 201040Z 01001KT 17/14 A2985 RMK A01 T01710143  RH  087%=      5-min Rain = 0
KMNS 201045Z 34006KT 17/14 A2985 RMK A01 T01650141  RH  089%=      5-min Rain = 0
KMNS 201050Z 36002KT 16/14 A2985 RMK A01 T01640142  RH  090%=      5-min Rain = 0
KMNS 201055Z 33002KT 16/14 A2985 RMK A01 T01630142  RH  091%=      5-min Rain = 0
KMNS 201100Z 32006KT 16/14 A2985 RMK A01 T01600139  RH  091%=      5-min Rain = 0
KMNS 201105Z 32006KT 16/14 A2985 RMK A01 T01620142  RH  092%=      5-min Rain = 0
KMNS 201110Z 31005KT 16/14 A2985 RMK A01 T01590140  RH  092%=      5-min Rain = 0
KMNS 201115Z 31004KT 16/14 A2985 RMK A01 T01590141  RH  093%=      5-min Rain = 0
KMNS 201120Z 33004KT 16/14 A2985 RMK A01 T01590140  RH  093%=      5-min Rain = 0
KMNS 201125Z 33002KT 16/14 A2985 RMK A01 T01580141  RH  093%=      5-min Rain = 0
KMNS 201130Z 29003KT 16/14 A2985 RMK A01 T01580141  RH  093%=      5-min Rain = 0
KMNS 201135Z 30004KT 16/14 A2986 RMK A01 T01570140  RH  094%=      5-min Rain = 0
KMNS 201140Z 31004KT 16/14 A2986 RMK A01 T01570140  RH  094%=      5-min Rain = 0
KMNS 201145Z 30004KT 16/14 A2986 RMK A01 T01560139  RH  094%=      5-min Rain = 0
KMNS 201150Z 30004KT 16/14 A2986 RMK A01 T01570141  RH  094%=      5-min Rain = 0
KMNS 201155Z 29004KT 16/14 A2986 RMK A01 T01590142  RH  094%=      5-min Rain = 0
KMNS 201200Z 29003KT 16/15 A2985 RMK A01 T01610145  RH  094%=      5-min Rain = 0
KMNS 201205Z 28003KT 16/14 A2986 RMK A01 T01610144  RH  094%=      5-min Rain = 0
KMNS 201210Z 30004KT 16/14 A2986 RMK A01 T01590142  RH  094%=      5-min Rain = 0
KMNS 201215Z 29002KT 16/14 A2986 RMK A01 T01600143  RH  094%=      5-min Rain = 0
KMNS 201220Z 26005KT 16/15 A2986 RMK A01 T01640148  RH  094%=      5-min Rain = 0
KMNS 201225Z 27006KT 17/15 A2987 RMK A01 T01650149  RH  094%=      5-min Rain = 0
KMNS 201230Z 27006KT 17/15 A2987 RMK A01 T01650148  RH  094%=      5-min Rain = 0
KMNS 201235Z 28004KT 17/15 A2987 RMK A01 T01650148  RH  093%=      5-min Rain = 0
KMNS 201240Z 30003KT 17/15 A2987 RMK A01 T01700151  RH  093%=      5-min Rain = 0
KMNS 201245Z 29003KT 18/16 A2987 RMK A01 T01750155  RH  092%=      5-min Rain = 0
KMNS 201250Z 27001KT 18/16 A2987 RMK A01 T01780156  RH  091%=      5-min Rain = 0
KMNS 201255Z 26005KT 18/15 A2987 RMK A01 T01790153  RH  089%=      5-min Rain = 0
KMNS 201300Z 26005KT 18/15 A2988 RMK A01 T01830152  RH  086%=      5-min Rain = 0
KMNS 201305Z 26006KT 19/15 A2988 RMK A01 T01860148  RH  082%=      5-min Rain = 0
KMNS 201310Z 25006KT 19/15 A2988 RMK A01 T01910145  RH  078%=      5-min Rain = 0
KMNS 201315Z 27006KT 20/14 A2988 RMK A01 T01950139  RH  073%=      5-min Rain = 0
KMNS 201320Z 29007KT 20/14 A2988 RMK A01 T02000135  RH  069%=      5-min Rain = 0
KMNS 201325Z 29009KT 21/13 A2989 RMK A01 T02060130  RH  064%=      5-min Rain = 0
KMNS 201330Z 28008KT 21/12 A2989 RMK A01 T02090121  RH  059%=      5-min Rain = 0
KMNS 201335Z 28007KT 21/12 A2989 RMK A01 T02140117  RH  056%=      5-min Rain = 0
KMNS 201340Z 28007KT 22/11 A2989 RMK A01 T02220109  RH  051%=      5-min Rain = 0
KMNS 201350Z 28008KT 23/11 A2989 RMK A01 T02320107  RH  047%=      5-min Rain = 0
KMNS 201355Z 28008KT 24/10 A2989 RMK A01 T02380104  RH  044%=      5-min Rain = 0
KMNS 201400Z 28008KT 24/10 A2989 RMK A01 T02420098  RH  041%=      5-min Rain = 0
KMNS 201405Z 27007KT 25/09 A2989 RMK A01 T02460093  RH  039%=      5-min Rain = 0
KMNS 201410Z 28006KT 25/09 A2989 RMK A01 T02530089  RH  036%=      5-min Rain = 0
KMNS 201415Z 29007KT 26/09 A2989 RMK A01 T02580089  RH  035%=      5-min Rain = 0
KMNS 201420Z 28008KT 26/08 A2989 RMK A01 T02620077  RH  032%=      5-min Rain = 0
KMNS 201425Z 28008KT 27/07 A2989 RMK A01 T02660071  RH  030%=      5-min Rain = 0
KMNS 201430Z 28007KT 27/07 A2989 RMK A01 T02690073  RH  030%=      5-min Rain = 0
KMNS 201435Z 28008KT 27/07 A2989 RMK A01 T02730069  RH  028%=      5-min Rain = 0
KMNS 201440Z 29007KT 28/07 A2989 RMK A01 T02750072  RH  028%=      5-min Rain = 0
KMNS 201445Z 29008KT 28/07 A2989 RMK A01 T02790068  RH  027%=      5-min Rain = 0
KMNS 201450Z 29007KT 28/06 A2989 RMK A01 T02820063  RH  026%=      5-min Rain = 0
KMNS 201455Z 30007KT 29/06 A2989 RMK A01 T02850064  RH  025%=      5-min Rain = 0
KMNS 201500Z 29007KT 29/06 A2989 RMK A01 T02880064  RH  025%=      5-min Rain = 0
KMNS 201505Z 29008KT 29/06 A2989 RMK A01 T02920061  RH  024%=      5-min Rain = 0
KMNS 201510Z 30008KT 30/06 A2989 RMK A01 T02950064  RH  024%=      5-min Rain = 0
KMNS 201515Z 29008KT 30/06 A2989 RMK A01 T02950061  RH  023%=      5-min Rain = 0
KMNS 201520Z 29009KT 30/06 A2989 RMK A01 T02960059  RH  023%=      5-min Rain = 0
KMNS 201525Z 29007KT 30/06 A2989 RMK A01 T02980062  RH  023%=      5-min Rain = 0
KMNS 201530Z 30007KT 30/07 A2989 RMK A01 T03030066  RH  023%=      5-min Rain = 0
KMNS 201535Z 30008KT 30/06 A2989 RMK A01 T03040059  RH  022%=      5-min Rain = 0
KMNS 201540Z 29007KT 31/07 A2989 RMK A01 T03070069  RH  023%=      5-min Rain = 0
KMNS 201545Z 29006KT 31/07 A2989 RMK A01 T03090073  RH  024%=      5-min Rain = 0
KMNS 201550Z 30006KT 31/06 A2988 RMK A01 T03130061  RH  021%=      5-min Rain = 0
KMNS 201555Z 30006KT 31/05 A2988 RMK A01 T03140053  RH  020%=      5-min Rain = 0
KMNS 201600Z 29006KT 32/06 A2988 RMK A01 T03180058  RH  020%=      5-min Rain = 0
KMNS 201605Z 28005KT 32/06 A2988 RMK A01 T03200059  RH  020%=      5-min Rain = 0
KMNS 201610Z 26005KT 32/06 A2988 RMK A01 T03220056  RH  019%=      5-min Rain = 0
KMNS 201615Z 28005KT 33/06 A2988 RMK A01 T03260056  RH  019%=      5-min Rain = 0
KMNS 201620Z 25006KT 33/04 A2988 RMK A01 T03290040  RH  017%=      5-min Rain = 0
KMNS 201625Z 27005KT 33/05 A2988 RMK A01 T03340049  RH  017%=      5-min Rain = 0
KMNS 201630Z 27006KT 34/04 A2988 RMK A01 T03360035  RH  015%=      5-min Rain = 0
KMNS 201635Z 27005KT 34/04 A2988 RMK A01 T03380037  RH  016%=      5-min Rain = 0
KMNS 201640Z 23005KT 34/03 A2988 RMK A01 T03370030  RH  015%=      5-min Rain = 0
KMNS 201645Z 25006KT 34/03 A2988 RMK A01 T03390031  RH  015%=      5-min Rain = 0
KMNS 201650Z 26006KT 34/02 A2988 RMK A01 T03420024  RH  014%=      5-min Rain = 0
KMNS 201655Z 25007KT 34/02 A2988 RMK A01 T03430023  RH  014%=      5-min Rain = 0
KMNS 201700Z 26007KT 35/03 A2988 RMK A01 T03460027  RH  014%=      5-min Rain = 0
KMNS 201705Z 26005KT 35/03 A2988 RMK A01 T03460026  RH  014%=      5-min Rain = 0
KMNS 201710Z 24004KT 35/02 A2988 RMK A01 T03450022  RH  013%=      5-min Rain = 0
KMNS 201715Z 23004KT 35/03 A2988 RMK A01 T03500033  RH  014%=      5-min Rain = 0
KMNS 201720Z 26008G13KT 35/02 A2988 RMK A01 T03500016  RH  012%=      5-min Rain = 0
KMNS 201725Z 25007KT 35/01 A2988 RMK A01 T03500014  RH  012%=      5-min Rain = 0
KMNS 201730Z 24006G11KT 35/02 A2988 RMK A01 T03490015  RH  012%=      5-min Rain = 0
KMNS 201735Z 26007KT 35/02 A2987 RMK A01 T03530023  RH  013%=      5-min Rain = 0
KMNS 201740Z 25006KT 36/03 A2987 RMK A01 T03560027  RH  013%=      5-min Rain = 0
KMNS 201745Z 23007KT 36/02 A2987 RMK A01 T03560023  RH  013%=      5-min Rain = 0
KMNS 201750Z 25008KT 36/00 A2987 RMK A01 T03550003  RH  011%=      5-min Rain = 0
KMNS 201755Z 25005G10KT 35/00 A2987 RMK A01 T03540001  RH  011%=      5-min Rain = 0
KMNS 201800Z 25004G10KT 35/01 A2987 RMK A01 T03540009  RH  012%=      5-min Rain = 0
KMNS 201805Z 20005KT 36/02 A2987 RMK A01 T03560016  RH  012%=      5-min Rain = 0
KMNS 201810Z 25004KT 36/01 A2987 RMK A01 T03590013  RH  012%=      5-min Rain = 0
KMNS 201815Z 20005KT 36/01 A2987 RMK A01 T03590013  RH  012%=      5-min Rain = 0
KMNS 201820Z 17002KT 36/02 A2987 RMK A01 T03590019  RH  012%=      5-min Rain = 0
KMNS 201825Z 21006G11KT 36/02 A2987 RMK A01 T03620020  RH  012%=      5-min Rain = 0
KMNS 201830Z 23004G9KT 36/00 A2987 RMK A01 T03600001  RH  011%=      5-min Rain = 0
KMNS 201835Z 25006G11KT 36/01 A2986 RMK A01 T03610008  RH  011%=      5-min Rain = 0
KMNS 201840Z 24004KT 36/02 A2986 RMK A01 T03630017  RH  012%=      5-min Rain = 0
KMNS 201845Z 21009G14KT 37/02 A2986 RMK A01 T03660024  RH  012%=      5-min Rain = 0
KMNS 201850Z 19008G15KT 36/02 A2986 RMK A01 T03620021  RH  012%=      5-min Rain = 0
KMNS 201855Z 19009G15KT 36/02 A2986 RMK A01 T03610022  RH  012%=      5-min Rain = 0
KMNS 201900Z 23005KT 36/M00 A2986 RMK A01 T03631002  RH  010%=      5-min Rain = 0
KMNS 201905Z 20008G14KT 37/02 A2985 RMK A01 T03660024  RH  012%=      5-min Rain = 0
KMNS 201910Z 21015G20KT 37/00 A2985 RMK A01 T03670004  RH  010%=      5-min Rain = 0
KMNS 201915Z 20012KT 37/01 A2985 RMK A01 T03650008  RH  011%=      5-min Rain = 0
KMNS 201920Z 22011G19KT 37/00 A2985 RMK A01 T036600-0  RH  010%=      5-min Rain = 0
KMNS 201925Z 22015KT 37/M02 A2985 RMK A01 T03681019  RH  009%=      5-min Rain = 0
KMNS 201930Z 21014KT 37/M02 A2985 RMK A01 T03711016  RH  009%=      5-min Rain = 0
KMNS 201935Z 21010G17KT 37/M02 A2985 RMK A01 T03661016  RH  009%=      5-min Rain = 0
KMNS 201940Z 21011G16KT 37/M00 A2985 RMK A01 T03661004  RH  010%=      5-min Rain = 0
KMNS 201945Z 20013G19KT 37/00 A2985 RMK A01 T03670001  RH  010%=      5-min Rain = 0
KMNS 201950Z 21011G16KT 37/01 A2984 RMK A01 T03680005  RH  010%=      5-min Rain = 0
KMNS 201955Z 23011G16KT 37/M02 A2984 RMK A01 T03681016  RH  009%=      5-min Rain = 0
KMNS 202000Z 21013KT 37/M01 A2984 RMK A01 T03711012  RH  009%=      5-min Rain = 0
KMNS 202005Z 22016G22KT 37/M02 A2984 RMK A01 T03671021  RH  009%=      5-min Rain = 0
KMNS 202010Z 23010G18KT 37/M02 A2984 RMK A01 T03671021  RH  009%=      5-min Rain = 0
KMNS 202015Z 22017KT 37/M02 A2984 RMK A01 T03701020  RH  009%=      5-min Rain = 0
KMNS 202020Z 24011G16KT 37/M01 A2983 RMK A01 T03701012  RH  009%=      5-min Rain = 0
KMNS 202025Z 23015G25KT 37/M02 A2983 RMK A01 T03711020  RH  008%=      5-min Rain = 0
KMNS 202030Z 23016G22KT 37/M02 A2983 RMK A01 T03711022  RH  008%=      5-min Rain = 0
KMNS 202035Z 22013G19KT 37/M03 A2983 RMK A01 T03701029  RH  008%=      5-min Rain = 0
KMNS 202040Z 24014G22KT 37/M03 A2983 RMK A01 T03711034  RH  008%=      5-min Rain = 0
KMNS 202045Z 24011KT 37/M02 A2983 RMK A01 T03731020  RH  008%=      5-min Rain = 0
KMNS 202050Z 25013KT 38/M02 A2982 RMK A01 T03751019  RH  008%=      5-min Rain = 0
KMNS 202055Z 22016G22KT 37/M03 A2982 RMK A01 T03741025  RH  008%=      5-min Rain = 0
KMNS 202100Z 19013G18KT 36/M03 A2982 RMK A01 T03631025  RH  009%=      5-min Rain = 0
KMNS 202105Z 23013G20KT 37/M03 A2982 RMK A01 T03721027  RH  008%=      5-min Rain = 0
KMNS 202110Z 27013G19KT 37/M02 A2982 RMK A01 T03721022  RH  008%=      5-min Rain = 0
KMNS 202115Z 23012G18KT 37/M03 A2982 RMK A01 T03711028  RH  008%=      5-min Rain = 0
KMNS 202120Z 21009G16KT 37/M02 A2982 RMK A01 T03691022  RH  008%=      5-min Rain = 0
KMNS 202125Z 23015G22KT 37/M03 A2981 RMK A01 T03711025  RH  008%=      5-min Rain = 0
KMNS 202130Z 23011G19KT 37/M03 A2981 RMK A01 T03711027  RH  008%=      5-min Rain = 0
KMNS 202135Z 23010G19KT 37/M03 A2981 RMK A01 T03721027  RH  008%=      5-min Rain = 0
KMNS 202140Z 23012G18KT 37/M03 A2981 RMK A01 T03731029  RH  008%=      5-min Rain = 0
KMNS 202145Z 23011G19KT 37/M03 A2981 RMK A01 T03711027  RH  008%=      5-min Rain = 0
KMNS 202150Z 24015KT 37/M03 A2981 RMK A01 T03721026  RH  008%=      5-min Rain = 0
KMNS 202155Z 24013KT 37/M03 A2981 RMK A01 T03711029  RH  008%=      5-min Rain = 0
KMNS 202200Z 23008G20KT 37/M03 A2981 RMK A01 T03691025  RH  008%=      5-min Rain = 0
KMNS 202205Z 23012G20KT 37/M02 A298 RMK A01 T03711015  RH  009%=      5-min Rain = 0
KMNS 202210Z 25012KT 37/M03 A298 RMK A01 T03731027  RH  008%=      5-min Rain = 0
KMNS 202215Z 21013G18KT 37/M03 A298 RMK A01 T03701026  RH  008%=      5-min Rain = 0
KMNS 202220Z 21010G16KT 37/M02 A298 RMK A01 T03691020  RH  009%=      5-min Rain = 0
KMNS 202225Z 21011G20KT 37/M02 A298 RMK A01 T03691024  RH  008%=      5-min Rain = 0
KMNS 202230Z 22010G20KT 37/M02 A298 RMK A01 T03681016  RH  009%=      5-min Rain = 0
KMNS 202235Z 23013G19KT 37/M02 A298 RMK A01 T03711020  RH  008%=      5-min Rain = 0
KMNS 202240Z 22012KT 37/M02 A298 RMK A01 T03691022  RH  008%=      5-min Rain = 0
KMNS 202245Z 23011G19KT 37/M03 A298 RMK A01 T03681028  RH  008%=      5-min Rain = 0
KMNS 202250Z 24013G18KT 37/M02 A298 RMK A01 T03721016  RH  009%=      5-min Rain = 0
KMNS 202255Z 23014G19KT 37/M03 A298 RMK A01 T03691025  RH  008%=      5-min Rain = 0
KMNS 202300Z 20011KT 37/M02 A2979 RMK A01 T03671023  RH  008%=      5-min Rain = 0
KMNS 202305Z 21010KT 37/M02 A2979 RMK A01 T03651015  RH  009%=      5-min Rain = 0
KMNS 202310Z 22010G15KT 37/M02 A2979 RMK A01 T03681015  RH  009%=      5-min Rain = 0
KMNS 202315Z 23011KT 37/M02 A2979 RMK A01 T03691024  RH  008%=      5-min Rain = 0
KMNS 202320Z 23012KT 37/M03 A2979 RMK A01 T03671027  RH  008%=      5-min Rain = 0
KMNS 202325Z 23012KT 37/M03 A2979 RMK A01 T03661028  RH  008%=      5-min Rain = 0
KMNS 202330Z 21013KT 36/M03 A2979 RMK A01 T03641026  RH  008%=      5-min Rain = 0
KMNS 202335Z 22013KT 36/M03 A2979 RMK A01 T03631027  RH  008%=      5-min Rain = 0
KMNS 202340Z 21016KT 36/M03 A2978 RMK A01 T03621027  RH  008%=      5-min Rain = 0
KMNS 202345Z 21016KT 36/M03 A2978 RMK A01 T03611031  RH  008%=      5-min Rain = 0
KMNS 202350Z 21014KT 36/M03 A2978 RMK A01 T03611031  RH  008%=      5-min Rain = 0
KMNS 202355Z 20014G19KT 36/M03 A2978 RMK A01 T03591031  RH  008%=      5-min Rain = 0
KMNS 210000Z 21013G18KT 36/M03 A2978 RMK A01 T03601031  RH  008%=      5-min Rain = 0
KMNS 210005Z 21014KT 36/M03 A2978 RMK A01 T03591029  RH  008%=      5-min Rain = 0
KMNS 210010Z 20013KT 36/M03 A2978 RMK A01 T03581034  RH  008%=      5-min Rain = 0
KMNS 210015Z 20012KT 36/M03 A2978 RMK A01 T03571031  RH  008%=      5-min Rain = 0
KMNS 210020Z 20014KT 36/M04 A2978 RMK A01 T03561035  RH  008%=      5-min Rain = 0
KMNS 210025Z 20012KT 36/M03 A2978 RMK A01 T03551034  RH  008%=      5-min Rain = 0
KMNS 210030Z 20013KT 35/M04 A2978 RMK A01 T03541035  RH  008%=      5-min Rain = 0
KMNS 210035Z 21013KT 35/M03 A2978 RMK A01 T03541034  RH  008%=      5-min Rain = 0
KMNS 210040Z 21012G18KT 35/M03 A2978 RMK A01 T03521032  RH  009%=      5-min Rain = 0
KMNS 210045Z 20013KT 35/M04 A2978 RMK A01 T03511035  RH  008%=      5-min Rain = 0
KMNS 210050Z 21011KT 35/M03 A2978 RMK A01 T03491029  RH  009%=      5-min Rain = 0
KMNS 210055Z 21010KT 35/M02 A2978 RMK A01 T03471022  RH  010%=      5-min Rain = 0
KMNS 210100Z 22009KT 35/M02 A2978 RMK A01 T03451015  RH  010%=      5-min Rain = 0
KMNS 210105Z 22007KT 34/M00 A2978 RMK A01 T03421003  RH  011%=      5-min Rain = 0
KMNS 210110Z 22006KT 34/00 A2978 RMK A01 T03380002  RH  012%=      5-min Rain = 0
KMNS 210115Z 21006KT 34/00 A2978 RMK A01 T03350002  RH  012%=      5-min Rain = 0
KMNS 210120Z 21007KT 33/01 A2978 RMK A01 T03300012  RH  013%=      5-min Rain = 0
KMNS 210125Z 21007KT 33/02 A2978 RMK A01 T03260015  RH  014%=      5-min Rain = 0
KMNS 210130Z 21007KT 32/02 A2978 RMK A01 T03210022  RH  015%=      5-min Rain = 0
KMNS 210135Z 21006KT 32/03 A2978 RMK A01 T03150030  RH  017%=      5-min Rain = 0
KMNS 210140Z 21007KT 31/03 A2978 RMK A01 T03110031  RH  017%=      5-min Rain = 0
KMNS 210145Z 20006KT 31/04 A2978 RMK A01 T03050037  RH  019%=      5-min Rain = 0
KMNS 210150Z 20006KT 30/05 A2978 RMK A01 T02970045  RH  021%=      5-min Rain = 0
KMNS 210155Z 20006KT 29/05 A2978 RMK A01 T02920048  RH  022%=      5-min Rain = 0
KMNS 210200Z 20006KT 29/05 A2978 RMK A01 T02920052  RH  022%=      5-min Rain = 0
KMNS 210205Z 20006KT 29/06 A2978 RMK A01 T02880059  RH  024%=      5-min Rain = 0
KMNS 210210Z 20007KT 28/06 A2978 RMK A01 T02830062  RH  025%=      5-min Rain = 0
KMNS 210215Z 20007KT 28/06 A2978 RMK A01 T02770058  RH  025%=      5-min Rain = 0
KMNS 210220Z 20008KT 27/07 A2978 RMK A01 T02690066  RH  028%=      5-min Rain = 0
KMNS 210225Z 20008KT 27/07 A2978 RMK A01 T02660067  RH  029%=      5-min Rain = 0
KMNS 210230Z 19008KT 26/07 A2978 RMK A01 T02630069  RH  030%=      5-min Rain = 0
KMNS 210235Z 19008KT 26/07 A2978 RMK A01 T02590074  RH  032%=      5-min Rain = 0
KMNS 210240Z 19008KT 26/08 A2978 RMK A01 T02570075  RH  032%=      5-min Rain = 0
KMNS 210245Z 20009KT 26/07 A2979 RMK A01 T02550073  RH  032%=      5-min Rain = 0
KMNS 210250Z 21009KT 26/06 A2979 RMK A01 T02580062  RH  029%=      5-min Rain = 0
KMNS 210255Z 21009KT 26/04 A2979 RMK A01 T02630040  RH  024%=      5-min Rain = 0
KMNS 210300Z 21009KT 27/03 A2979 RMK A01 T02690027  RH  021%=      5-min Rain = 0
KMNS 210305Z 21010KT 27/02 A2979 RMK A01 T02710019  RH  020%=      5-min Rain = 0
KMNS 210310Z 21011KT 27/01 A2979 RMK A01 T02720013  RH  019%=      5-min Rain = 0
KMNS 210315Z 21011KT 27/01 A2979 RMK A01 T02710009  RH  018%=      5-min Rain = 0
KMNS 210320Z 21010KT 27/01 A2979 RMK A01 T02700005  RH  018%=      5-min Rain = 0
KMNS 210325Z 21010KT 27/M00 A298 RMK A01 T02711003  RH  017%=      5-min Rain = 0
KMNS 210330Z 21011KT 27/M01 A298 RMK A01 T02731007  RH  016%=      5-min Rain = 0
KMNS 210335Z 21011KT 27/M01 A298 RMK A01 T02701006  RH  017%=      5-min Rain = 0
KMNS 210340Z 21011KT 27/M01 A298 RMK A01 T02691007  RH  017%=      5-min Rain = 0
KMNS 210345Z 20010KT 27/M01 A298 RMK A01 T02661006  RH  017%=      5-min Rain = 0
KMNS 210350Z 20009KT 26/01 A298 RMK A01 T02580006  RH  019%=      5-min Rain = 0
KMNS 210355Z 20010KT 25/01 A298 RMK A01 T02510011  RH  021%=      5-min Rain = 0
KMNS 210400Z 21011KT 25/00 A298 RMK A01 T02530001  RH  019%=      5-min Rain = 0
KMNS 210405Z 21012KT 26/M01 A298 RMK A01 T02611010  RH  017%=      5-min Rain = 0
KMNS 210410Z 21012KT 26/M01 A298 RMK A01 T02621014  RH  016%=      5-min Rain = 0
KMNS 210415Z 21013KT 26/M01 A298 RMK A01 T02601014  RH  017%=      5-min Rain = 0
KMNS 210420Z 20011KT 25/M00 A2981 RMK A01 T02531003  RH  019%=      5-min Rain = 0
KMNS 210425Z 20012KT 24/01 A2981 RMK A01 T02360013  RH  023%=      5-min Rain = 0
KMNS 210430Z 21012KT 24/00 A2981 RMK A01 T02410003  RH  021%=      5-min Rain = 0
KMNS 210435Z 20012KT 25/M01 A2981 RMK A01 T02491008  RH  018%=      5-min Rain = 0
KMNS 210440Z 21012KT 25/M01 A2981 RMK A01 T02471009  RH  019%=      5-min Rain = 0
KMNS 210445Z 20012KT 25/M01 A2981 RMK A01 T02461008  RH  019%=      5-min Rain = 0
KMNS 210450Z 20012KT 24/M01 A2981 RMK A01 T02431007  RH  019%=      5-min Rain = 0
KMNS 210455Z 21011KT 24/M01 A2981 RMK A01 T02401005  RH  020%=      5-min Rain = 0

Page generated in 0.0089 seconds.